createdAt,value
2023-03-19T00:01:38.553Z,97009.27
2023-03-19T00:04:05.654Z,97011.23
2023-03-19T00:06:32.294Z,97011.77
2023-03-19T00:08:59.333Z,97005.05
2023-03-19T00:11:26.802Z,97008.96
2023-03-19T00:13:53.535Z,97001.86
2023-03-19T00:16:20.944Z,97004.80
2023-03-19T00:18:48.786Z,97001.76
2023-03-19T00:21:15.537Z,97003.44
2023-03-19T00:23:42.560Z,97001.65
2023-03-19T00:26:09.193Z,97002.98
2023-03-19T00:28:36.954Z,97002.53
2023-03-19T00:31:08.588Z,97000.65
2023-03-19T00:33:35.657Z,97002.66
2023-03-19T00:36:02.729Z,96999.64
2023-03-19T00:38:29.505Z,97001.22
2023-03-19T00:40:56.438Z,96999.38
2023-03-19T00:43:23.335Z,96999.13
2023-03-19T00:45:50.452Z,96992.09
2023-03-19T00:48:17.738Z,96994.27
2023-03-19T00:50:44.635Z,96987.95
2023-03-19T00:53:11.740Z,96987.10
2023-03-19T00:55:38.792Z,96989.40
2023-03-19T00:58:06.441Z,96986.01
2023-03-19T01:00:37.153Z,96990.98
2023-03-19T01:03:05.861Z,96986.48
2023-03-19T01:05:35.392Z,96981.52
2023-03-19T01:08:02.110Z,96985.36
2023-03-19T01:10:34.283Z,96981.65
2023-03-19T01:13:01.996Z,96981.08
2023-03-19T01:15:29.396Z,96980.70
2023-03-19T01:17:56.348Z,96978.86
2023-03-19T01:20:23.697Z,96976.80
2023-03-19T01:22:50.553Z,96976.17
2023-03-19T01:25:17.595Z,96977.69
2023-03-19T01:27:53.343Z,96977.15
2023-03-19T01:30:21.323Z,96980.14
2023-03-19T01:33:20.092Z,96980.71
2023-03-19T01:35:58.926Z,96981.23
2023-03-19T01:38:30.887Z,96983.52
2023-03-19T01:41:01.767Z,96984.89
2023-03-19T01:43:32.084Z,96984.81
2023-03-19T01:46:34.494Z,96981.91
2023-03-19T01:49:34.745Z,96980.44
2023-03-19T01:52:21.794Z,96978.78
2023-03-19T01:55:14.912Z,96980.04
2023-03-19T01:57:48.412Z,96983.92
2023-03-19T02:00:34.969Z,96979.92
2023-03-19T02:03:02.598Z,96983.98
2023-03-19T02:05:50.132Z,96979.80
2023-03-19T02:08:20.703Z,96978.98
2023-03-19T02:10:47.742Z,96979.21
2023-03-19T02:13:15.365Z,96980.75
2023-03-19T02:15:42.758Z,96981.14
2023-03-19T02:18:10.151Z,96980.75
2023-03-19T02:20:55.252Z,96981.75
2023-03-19T02:24:11.580Z,96979.90
2023-03-19T02:27:01.925Z,96986.44
2023-03-19T02:29:28.988Z,96991.99
2023-03-19T02:31:58.278Z,96992.61
2023-03-19T02:34:25.130Z,96987.66
2023-03-19T02:37:07.319Z,96982.74
2023-03-19T02:39:43.490Z,96978.70
2023-03-19T02:42:11.407Z,96975.50
2023-03-19T02:44:38.397Z,96978.45
2023-03-19T02:47:05.756Z,96978.02
2023-03-19T02:49:32.503Z,96978.71
2023-03-19T02:52:00.256Z,96979.30
2023-03-19T02:54:27.006Z,96985.50
2023-03-19T02:56:53.676Z,96987.45
2023-03-19T02:59:20.871Z,96994.51
2023-03-19T03:01:47.689Z,96995.22
2023-03-19T03:04:15.987Z,96995.23
2023-03-19T03:06:43.214Z,97000.60
2023-03-19T03:09:11.323Z,97002.40
2023-03-19T03:11:37.966Z,97001.41
2023-03-19T03:14:04.594Z,96999.67
2023-03-19T03:16:31.561Z,96999.06
2023-03-19T03:18:58.773Z,97000.09
2023-03-19T03:21:25.634Z,97006.11
2023-03-19T03:23:53.465Z,97001.58
2023-03-19T03:26:20.582Z,97004.16
2023-03-19T03:28:47.393Z,97008.05
2023-03-19T03:31:14.308Z,97009.45
2023-03-19T03:33:41.065Z,97013.06
2023-03-19T03:36:07.894Z,97013.11
2023-03-19T03:38:34.813Z,97012.36
2023-03-19T03:41:01.788Z,97020.06
2023-03-19T03:43:28.529Z,97018.46
2023-03-19T03:45:55.415Z,97013.57
2023-03-19T03:48:22.248Z,97015.05
2023-03-19T03:50:49.357Z,97013.27
2023-03-19T03:53:18.274Z,97013.85
2023-03-19T03:55:45.471Z,97014.40
2023-03-19T03:58:13.073Z,97011.41
2023-03-19T04:00:40.329Z,97015.48
2023-03-19T04:03:07.013Z,97016.30
2023-03-19T04:05:33.668Z,97017.47
2023-03-19T04:08:00.697Z,97020.99
2023-03-19T04:10:27.260Z,97017.75
2023-03-19T04:12:54.211Z,97018.14
2023-03-19T04:15:22.041Z,97020.95
2023-03-19T04:17:49.041Z,97020.98
2023-03-19T04:20:17.984Z,97019.88
2023-03-19T04:22:45.281Z,97019.52
2023-03-19T04:25:12.027Z,97016.73
2023-03-19T04:27:38.882Z,97020.16
2023-03-19T04:30:10.758Z,97013.34
2023-03-19T04:32:37.890Z,97010.34
2023-03-19T04:35:05.123Z,97007.61
2023-03-19T04:37:31.769Z,97004.13
2023-03-19T04:39:58.945Z,97001.98
2023-03-19T04:42:25.875Z,97001.39
2023-03-19T04:45:02.998Z,96997.15
2023-03-19T04:47:30.258Z,97000.79
2023-03-19T04:49:58.334Z,97000.32
2023-03-19T04:52:25.447Z,96999.16
2023-03-19T04:54:52.237Z,96998.59
2023-03-19T04:57:18.829Z,97002.86
2023-03-19T04:59:46.287Z,97007.23
2023-03-19T05:02:14.998Z,97009.74
2023-03-19T05:04:41.754Z,97010.90
2023-03-19T05:07:10.926Z,97014.80
2023-03-19T05:09:37.808Z,97013.61
2023-03-19T05:12:04.757Z,97013.08
2023-03-19T05:14:36.101Z,97012.23
2023-03-19T05:17:24.982Z,97014.49
2023-03-19T05:20:14.944Z,97015.48
2023-03-19T05:22:47.816Z,97014.18
2023-03-19T05:25:14.988Z,97019.13
2023-03-19T05:27:41.874Z,97022.35
2023-03-19T05:30:17.826Z,97015.12
2023-03-19T05:33:16.803Z,97017.05
2023-03-19T05:35:45.157Z,97015.90
2023-03-19T05:38:19.022Z,97014.45
2023-03-19T05:40:52.008Z,97013.21
2023-03-19T05:43:30.578Z,97014.10
2023-03-19T05:45:58.344Z,97014.76
2023-03-19T05:48:27.942Z,97011.05
2023-03-19T05:50:55.609Z,97012.00
2023-03-19T05:53:22.651Z,97015.56
2023-03-19T05:56:24.891Z,97013.49
2023-03-19T05:59:11.824Z,97014.98
2023-03-19T06:01:41.246Z,97019.17
2023-03-19T06:04:07.968Z,97020.81
2023-03-19T06:06:34.601Z,97019.16
2023-03-19T06:09:01.938Z,97016.13
2023-03-19T06:11:43.261Z,97019.87
2023-03-19T06:14:28.381Z,97022.30
2023-03-19T06:17:13.490Z,97023.02
2023-03-19T06:19:40.428Z,97019.60
2023-03-19T06:22:07.458Z,97017.26
2023-03-19T06:24:34.311Z,97017.48
2023-03-19T06:27:01.125Z,97018.52
2023-03-19T06:29:27.861Z,97017.56
2023-03-19T06:31:59.841Z,97016.15
2023-03-19T06:34:35.969Z,97019.40
2023-03-19T06:37:02.687Z,97015.30
2023-03-19T06:39:29.302Z,97011.73
2023-03-19T06:41:56.087Z,97009.99
2023-03-19T06:44:24.818Z,97008.47
2023-03-19T06:46:51.803Z,97011.61
2023-03-19T06:49:18.755Z,97007.50
2023-03-19T06:51:45.545Z,97005.84
2023-03-19T06:54:12.221Z,97005.77
2023-03-19T06:56:39.196Z,97001.59
2023-03-19T06:59:06.080Z,97002.20
2023-03-19T07:01:32.865Z,97002.55
2023-03-19T07:03:59.542Z,97007.82
2023-03-19T07:06:26.310Z,97006.90
2023-03-19T07:08:53.002Z,97007.96
2023-03-19T07:11:20.055Z,97004.10
2023-03-19T07:13:46.858Z,97006.14
2023-03-19T07:16:13.712Z,97006.24
2023-03-19T07:18:40.411Z,97002.25
2023-03-19T07:21:07.075Z,96995.54
2023-03-19T07:23:33.741Z,96989.64
2023-03-19T07:26:00.462Z,96989.02
2023-03-19T07:28:27.295Z,96982.40
2023-03-19T07:30:54.193Z,96983.73
2023-03-19T07:33:21.347Z,96984.91
2023-03-19T07:35:48.307Z,96988.35
2023-03-19T07:38:15.068Z,96979.44
2023-03-19T07:40:51.347Z,96979.96
2023-03-19T07:43:22.122Z,96979.30
2023-03-19T07:45:48.854Z,96974.02
2023-03-19T07:48:15.688Z,96966.35
2023-03-19T07:50:42.551Z,96965.20
2023-03-19T07:53:09.181Z,96969.36
2023-03-19T07:55:38.325Z,96972.14
2023-03-19T07:58:05.419Z,96971.05
2023-03-19T08:00:32.589Z,96967.68
2023-03-19T08:02:59.558Z,96966.68
2023-03-19T08:05:26.544Z,96964.67
2023-03-19T08:07:53.147Z,96970.37
2023-03-19T08:10:20.051Z,96969.30
2023-03-19T08:12:47.392Z,96972.82
2023-03-19T08:15:14.007Z,96967.52
2023-03-19T08:17:40.574Z,96966.04
2023-03-19T08:20:13.100Z,96970.80
2023-03-19T08:22:41.157Z,96964.91
2023-03-19T08:25:09.248Z,96963.68
2023-03-19T08:27:36.101Z,96963.68
2023-03-19T08:30:06.685Z,96958.08
2023-03-19T08:32:33.790Z,96961.28
2023-03-19T08:35:00.667Z,96955.39
2023-03-19T08:37:27.772Z,96952.52
2023-03-19T08:39:54.283Z,96954.11
2023-03-19T08:42:22.156Z,96945.58
2023-03-19T08:44:49.134Z,96950.73
2023-03-19T08:47:16.064Z,96952.55
2023-03-19T08:49:42.522Z,96951.35
2023-03-19T08:52:09.225Z,96950.80
2023-03-19T08:54:36.264Z,96953.41
2023-03-19T08:57:03.649Z,96950.91
2023-03-19T08:59:32.036Z,96948.24
2023-03-19T09:02:00.876Z,96945.94
2023-03-19T09:04:28.027Z,96946.52
2023-03-19T09:06:55.430Z,96942.86
2023-03-19T09:09:24.137Z,96940.96
2023-03-19T09:11:50.965Z,96935.55
2023-03-19T09:14:19.387Z,96936.27
2023-03-19T09:16:46.361Z,96934.40
2023-03-19T09:19:13.264Z,96937.81
2023-03-19T09:21:40.486Z,96939.91
2023-03-19T09:24:07.197Z,96937.02
2023-03-19T09:26:33.721Z,96933.48
2023-03-19T09:29:01.456Z,96933.80
2023-03-19T09:31:29.623Z,96932.36
2023-03-19T09:33:56.611Z,96932.66
2023-03-19T09:36:23.439Z,96925.02
2023-03-19T09:38:50.050Z,96929.70
2023-03-19T09:41:45.404Z,96930.39
2023-03-19T09:44:17.851Z,96923.19
2023-03-19T09:46:50.870Z,96918.09
2023-03-19T09:49:27.642Z,96915.46
2023-03-19T09:52:14.794Z,96910.46
2023-03-19T09:54:47.745Z,96905.16
2023-03-19T09:57:15.158Z,96908.04
2023-03-19T09:59:41.847Z,96908.91
2023-03-19T10:02:37.078Z,96907.50
2023-03-19T10:05:18.557Z,96906.64
2023-03-19T10:07:51.705Z,96912.59
2023-03-19T10:10:24.172Z,96911.58
2023-03-19T10:13:32.685Z,96913.52
2023-03-19T10:16:01.118Z,96913.88
2023-03-19T10:18:33.949Z,96909.10
2023-03-19T10:21:23.849Z,96907.31
2023-03-19T10:23:54.001Z,96902.45
2023-03-19T10:26:22.546Z,96901.88
2023-03-19T10:29:01.900Z,96899.98
2023-03-19T10:31:40.193Z,96899.40
2023-03-19T10:34:32.715Z,96892.45
2023-03-19T10:37:24.818Z,96888.68
2023-03-19T10:39:56.624Z,96877.30
2023-03-19T10:42:54.147Z,96871.91
2023-03-19T10:45:30.578Z,96866.47
2023-03-19T10:47:58.868Z,96867.13
2023-03-19T10:50:33.996Z,96865.27
2023-03-19T10:53:06.271Z,96858.23
2023-03-19T10:55:33.556Z,96853.72
2023-03-19T10:58:16.424Z,96848.11
2023-03-19T11:00:46.992Z,96843.13
2023-03-19T11:03:32.602Z,96842.09
2023-03-19T11:06:18.485Z,96839.54
2023-03-19T11:08:55.310Z,96837.34
2023-03-19T11:11:24.049Z,96835.36
2023-03-19T11:13:50.634Z,96825.91
2023-03-19T11:16:17.352Z,96830.05
2023-03-19T11:18:47.291Z,96823.69
2023-03-19T11:21:28.493Z,96824.20
2023-03-19T11:24:03.227Z,96821.32
2023-03-19T11:26:30.626Z,96819.66
2023-03-19T11:29:03.578Z,96821.75
2023-03-19T11:32:20.404Z,96816.88
2023-03-19T11:35:01.809Z,96810.83
2023-03-19T11:38:00.782Z,96811.48
2023-03-19T11:40:54.073Z,96804.52
2023-03-19T11:43:44.841Z,96799.69
2023-03-19T11:46:53.580Z,96804.55
2023-03-19T11:49:52.410Z,96804.26
2023-03-19T11:52:39.713Z,96799.56
2023-03-19T11:55:37.083Z,96803.95
2023-03-19T11:58:13.780Z,96792.86
2023-03-19T12:00:47.153Z,96791.27
2023-03-19T12:03:25.861Z,96793.78
2023-03-19T12:06:13.681Z,96790.80
2023-03-19T12:09:03.523Z,96783.41
2023-03-19T12:11:59.032Z,96779.58
2023-03-19T12:14:29.531Z,96776.13
2023-03-19T12:17:06.314Z,96770.36
2023-03-19T12:19:37.992Z,96767.21
2023-03-19T12:22:04.570Z,96761.35
2023-03-19T12:24:58.423Z,96761.98
2023-03-19T12:27:34.825Z,96753.80
2023-03-19T12:30:23.082Z,96748.59
2023-03-19T12:33:08.515Z,96746.57
2023-03-19T12:35:40.156Z,96740.47
2023-03-19T12:38:36.768Z,96739.74
2023-03-19T12:41:15.598Z,96735.35
2023-03-19T12:44:06.549Z,96727.25
2023-03-19T12:46:38.094Z,96726.77
2023-03-19T12:49:25.152Z,96729.14
2023-03-19T12:51:56.836Z,96724.59
2023-03-19T12:54:28.124Z,96722.65
2023-03-19T12:57:00.044Z,96718.26
2023-03-19T12:59:29.696Z,96714.37
2023-03-19T13:02:10.001Z,96716.80
2023-03-19T13:04:49.027Z,96715.73
2023-03-19T13:07:28.362Z,96717.12
2023-03-19T13:10:06.019Z,96706.70
2023-03-19T13:12:37.549Z,96701.71
2023-03-19T13:15:14.100Z,96703.21
2023-03-19T13:17:56.568Z,96696.52
2023-03-19T13:20:54.001Z,96687.07
2023-03-19T13:23:28.863Z,96691.36
2023-03-19T13:26:00.149Z,96689.39
2023-03-19T13:28:36.175Z,96689.58
2023-03-19T13:31:06.742Z,96680.82
2023-03-19T13:33:38.309Z,96681.52
2023-03-19T13:36:07.273Z,96677.98
2023-03-19T13:38:46.578Z,96668.94
2023-03-19T13:41:32.215Z,96668.36
2023-03-19T13:44:00.030Z,96670.70
2023-03-19T13:46:39.156Z,96668.26
2023-03-19T13:49:26.680Z,96666.53
2023-03-19T13:51:55.645Z,96661.33
2023-03-19T13:54:36.776Z,96658.59
2023-03-19T13:57:18.910Z,96654.73
2023-03-19T13:59:48.136Z,96656.23
2023-03-19T14:02:21.163Z,96653.27
2023-03-19T14:04:59.349Z,96648.90
2023-03-19T14:07:30.216Z,96646.27
2023-03-19T14:09:56.907Z,96640.89
2023-03-19T14:12:26.446Z,96639.70
2023-03-19T14:15:17.946Z,96641.20
2023-03-19T14:17:47.800Z,96639.34
2023-03-19T14:20:15.973Z,96640.27
2023-03-19T14:23:11.210Z,96641.25
2023-03-19T14:25:56.728Z,96636.25
2023-03-19T14:28:42.215Z,96634.27
2023-03-19T14:31:34.463Z,96631.52
2023-03-19T14:34:07.224Z,96630.34
2023-03-19T14:36:37.798Z,96620.71
2023-03-19T14:39:24.641Z,96622.96
2023-03-19T14:41:59.054Z,96616.14
2023-03-19T14:44:42.465Z,96624.74
2023-03-19T14:47:24.589Z,96622.79
2023-03-19T14:49:54.273Z,96621.27
2023-03-19T14:52:29.157Z,96626.36
2023-03-19T14:54:59.209Z,96621.90
2023-03-19T14:57:28.587Z,96619.33
2023-03-19T14:59:56.313Z,96616.20
2023-03-19T15:03:01.461Z,96620.55
2023-03-19T15:05:32.377Z,96612.45
2023-03-19T15:08:03.942Z,96615.98
2023-03-19T15:10:47.194Z,96614.92
2023-03-19T15:13:20.018Z,96619.02
2023-03-19T15:16:08.240Z,96619.13
2023-03-19T15:18:36.424Z,96621.61
2023-03-19T15:21:04.582Z,96628.17
2023-03-19T15:23:32.234Z,96634.39
2023-03-19T15:26:01.458Z,96636.04
2023-03-19T15:28:44.562Z,96632.47
2023-03-19T15:31:29.905Z,96633.29
2023-03-19T15:33:58.342Z,96635.98
2023-03-19T15:36:29.422Z,96640.65
2023-03-19T15:39:04.947Z,96636.05
2023-03-19T15:41:39.609Z,96638.93
2023-03-19T15:44:13.888Z,96636.20
2023-03-19T15:46:41.870Z,96639.35
2023-03-19T15:49:12.949Z,96638.85
2023-03-19T15:51:41.795Z,96638.52
2023-03-19T15:54:08.710Z,96642.20
2023-03-19T15:56:35.586Z,96640.56
2023-03-19T15:59:03.115Z,96638.91
2023-03-19T16:01:32.967Z,96643.94
2023-03-19T16:04:03.954Z,96642.95
2023-03-19T16:06:41.387Z,96646.30
2023-03-19T16:09:34.176Z,96648.95
2023-03-19T16:12:01.463Z,96645.89
2023-03-19T16:14:41.954Z,96645.59
2023-03-19T16:17:14.758Z,96651.32
2023-03-19T16:19:54.543Z,96651.86
2023-03-19T16:22:24.036Z,96656.05
2023-03-19T16:24:52.085Z,96659.13
2023-03-19T16:27:30.565Z,96664.30
2023-03-19T16:29:59.306Z,96669.09
2023-03-19T16:32:31.042Z,96673.42
2023-03-19T16:35:05.737Z,96672.26
2023-03-19T16:37:32.617Z,96679.16
2023-03-19T16:40:25.853Z,96681.61
2023-03-19T16:42:55.710Z,96687.16
2023-03-19T16:45:28.944Z,96689.79
2023-03-19T16:47:57.948Z,96691.05
2023-03-19T16:50:34.507Z,96696.03
2023-03-19T16:53:02.425Z,96692.58
2023-03-19T16:55:35.771Z,96691.35
2023-03-19T16:58:10.179Z,96689.85
2023-03-19T17:00:37.417Z,96696.62
2023-03-19T17:03:10.471Z,96698.00
2023-03-19T17:05:37.166Z,96698.38
2023-03-19T17:08:04.002Z,96699.38
2023-03-19T17:10:31.757Z,96704.97
2023-03-19T17:13:00.276Z,96710.53
2023-03-19T17:15:37.185Z,96709.13
2023-03-19T17:18:13.639Z,96708.05
2023-03-19T17:20:44.547Z,96707.38
2023-03-19T17:23:12.548Z,96706.67
2023-03-19T17:25:39.628Z,96712.33
2023-03-19T17:28:06.321Z,96709.67
2023-03-19T17:30:33.987Z,96704.39
2023-03-19T17:33:01.038Z,96702.52
2023-03-19T17:35:27.771Z,96704.37
2023-03-19T17:37:54.553Z,96704.73
2023-03-19T17:40:26.751Z,96710.38
2023-03-19T17:42:55.032Z,96704.88
2023-03-19T17:45:29.042Z,96705.27
2023-03-19T17:47:57.823Z,96699.62
2023-03-19T17:50:32.424Z,96703.11
2023-03-19T17:52:59.605Z,96708.75
2023-03-19T17:55:29.200Z,96710.95
2023-03-19T17:57:56.272Z,96705.18
2023-03-19T18:00:24.170Z,96707.48
2023-03-19T18:02:53.796Z,96704.48
2023-03-19T18:05:25.182Z,96705.88
2023-03-19T18:07:55.670Z,96704.84
2023-03-19T18:10:26.928Z,96706.51
2023-03-19T18:12:54.050Z,96709.11
2023-03-19T18:15:21.641Z,96708.75
2023-03-19T18:17:52.331Z,96707.00
2023-03-19T18:20:22.650Z,96707.33
2023-03-19T18:22:49.798Z,96707.35
2023-03-19T18:25:22.268Z,96707.64
2023-03-19T18:27:49.296Z,96710.34
2023-03-19T18:30:20.710Z,96708.34
2023-03-19T18:32:50.991Z,96708.44
2023-03-19T18:35:22.172Z,96704.69
2023-03-19T18:37:50.868Z,96707.10
2023-03-19T18:40:21.726Z,96700.98
2023-03-19T18:42:49.079Z,96699.34
2023-03-19T18:45:17.007Z,96695.44
2023-03-19T18:47:46.637Z,96696.24
2023-03-19T18:50:18.234Z,96694.14
2023-03-19T18:52:47.260Z,96695.27
2023-03-19T18:55:14.884Z,96701.72
2023-03-19T18:57:52.853Z,96704.09
2023-03-19T19:00:28.807Z,96714.23
2023-03-19T19:02:57.206Z,96720.38
2023-03-19T19:05:27.096Z,96719.30
2023-03-19T19:07:55.947Z,96718.36
2023-03-19T19:10:30.409Z,96713.77
2023-03-19T19:12:57.465Z,96710.23
2023-03-19T19:15:32.183Z,96714.24
2023-03-19T19:17:58.963Z,96719.15
2023-03-19T19:20:28.856Z,96725.40
2023-03-19T19:22:55.877Z,96730.44
2023-03-19T19:25:27.590Z,96730.67
2023-03-19T19:28:03.295Z,96728.32
2023-03-19T19:30:31.361Z,96723.87
2023-03-19T19:32:58.239Z,96716.45
2023-03-19T19:35:27.581Z,96717.17
2023-03-19T19:37:54.840Z,96715.97
2023-03-19T19:40:27.383Z,96716.05
2023-03-19T19:42:54.619Z,96714.30
2023-03-19T19:45:31.676Z,96714.03
2023-03-19T19:47:59.711Z,96714.27
2023-03-19T19:50:27.285Z,96711.58
2023-03-19T19:52:55.541Z,96709.52
2023-03-19T19:55:24.182Z,96706.42
2023-03-19T19:57:52.448Z,96701.88
2023-03-19T20:00:25.773Z,96709.16
2023-03-19T20:02:53.756Z,96707.06
2023-03-19T20:05:26.097Z,96707.95
2023-03-19T20:07:54.835Z,96710.73
2023-03-19T20:10:23.880Z,96712.67
2023-03-19T20:12:54.177Z,96713.38
2023-03-19T20:15:24.594Z,96712.02
2023-03-19T20:17:53.289Z,96706.02
2023-03-19T20:20:26.400Z,96706.30
2023-03-19T20:22:54.754Z,96705.88
2023-03-19T20:25:24.699Z,96710.36
2023-03-19T20:27:56.052Z,96710.88
2023-03-19T20:30:32.783Z,96712.76
2023-03-19T20:33:01.399Z,96714.04
2023-03-19T20:35:30.864Z,96717.27
2023-03-19T20:37:59.760Z,96716.48
2023-03-19T20:40:33.472Z,96720.09
2023-03-19T20:43:01.192Z,96723.89
2023-03-19T20:45:34.991Z,96722.27
2023-03-19T20:48:01.797Z,96721.60
2023-03-19T20:50:32.091Z,96723.30
2023-03-19T20:53:02.955Z,96727.98
2023-03-19T20:55:32.942Z,96729.09
2023-03-19T20:58:03.050Z,96729.67
2023-03-19T21:00:31.992Z,96729.62
2023-03-19T21:03:01.187Z,96725.61
2023-03-19T21:05:39.521Z,96721.67
2023-03-19T21:08:18.865Z,96720.94
2023-03-19T21:10:48.429Z,96718.07
2023-03-19T21:13:17.845Z,96719.20
2023-03-19T21:15:49.171Z,96720.28
2023-03-19T21:18:16.395Z,96716.72
2023-03-19T21:20:45.847Z,96719.70
2023-03-19T21:23:25.795Z,96719.55
2023-03-19T21:25:53.580Z,96713.83
2023-03-19T21:28:35.025Z,96712.96
2023-03-19T21:31:01.864Z,96711.73
2023-03-19T21:33:31.061Z,96707.52
2023-03-19T21:35:58.987Z,96709.57
2023-03-19T21:38:26.423Z,96711.61
2023-03-19T21:41:29.493Z,96712.48
2023-03-19T21:44:00.292Z,96714.08
2023-03-19T21:46:29.893Z,96718.88
2023-03-19T21:48:57.689Z,96717.70
2023-03-19T21:51:27.550Z,96717.35
2023-03-19T21:53:54.355Z,96721.73
2023-03-19T21:56:32.876Z,96719.21
2023-03-19T21:59:03.116Z,96719.98
2023-03-19T22:01:29.808Z,96713.72
2023-03-19T22:03:58.052Z,96715.46
2023-03-19T22:06:25.260Z,96715.29
2023-03-19T22:08:53.296Z,96714.84
2023-03-19T22:11:32.360Z,96716.27
2023-03-19T22:14:18.401Z,96712.86
2023-03-19T22:16:46.517Z,96711.95
2023-03-19T22:19:18.518Z,96707.04
2023-03-19T22:21:45.759Z,96705.41
2023-03-19T22:24:12.563Z,96706.30
2023-03-19T22:26:44.273Z,96707.32
2023-03-19T22:29:20.554Z,96706.45
2023-03-19T22:31:48.941Z,96710.81
2023-03-19T22:34:22.329Z,96707.35
2023-03-19T22:36:49.000Z,96705.67
2023-03-19T22:39:15.723Z,96710.20
2023-03-19T22:41:45.412Z,96710.39
2023-03-19T22:44:30.949Z,96711.77
2023-03-19T22:46:59.910Z,96709.86
2023-03-19T22:49:29.078Z,96709.19
2023-03-19T22:51:57.125Z,96705.73
2023-03-19T22:54:24.159Z,96708.67
2023-03-19T22:56:50.863Z,96704.88
2023-03-19T22:59:18.084Z,96708.25
2023-03-19T23:01:46.624Z,96703.29
2023-03-19T23:04:23.082Z,96699.61
2023-03-19T23:06:51.608Z,96700.67
2023-03-19T23:09:24.300Z,96697.25
2023-03-19T23:11:51.980Z,96703.50
2023-03-19T23:14:28.924Z,96700.08
2023-03-19T23:17:02.656Z,96698.38
2023-03-19T23:19:34.253Z,96700.29
2023-03-19T23:22:02.653Z,96703.15
2023-03-19T23:24:30.098Z,96702.21
2023-03-19T23:26:58.567Z,96703.35
2023-03-19T23:29:31.963Z,96702.39
2023-03-19T23:31:59.045Z,96699.80
2023-03-19T23:34:27.844Z,96699.60
2023-03-19T23:36:54.492Z,96693.73
2023-03-19T23:39:21.215Z,96691.61
2023-03-19T23:41:52.179Z,96688.04
2023-03-19T23:44:19.380Z,96694.49
2023-03-19T23:46:48.706Z,96697.56
2023-03-19T23:49:21.442Z,96693.89
2023-03-19T23:51:48.175Z,96686.02
2023-03-19T23:54:28.114Z,96694.38
2023-03-19T23:56:57.701Z,96696.88
2023-03-19T23:59:26.464Z,96694.81
